createdAt,value
2018-06-11T00:00:45.345Z,22.93
2018-06-11T00:03:16.112Z,25.97
2018-06-11T00:05:46.236Z,24.37
2018-06-11T00:08:16.327Z,24.40
2018-06-11T00:10:46.720Z,24.23
2018-06-11T00:13:17.122Z,23.30
2018-06-11T00:15:48.523Z,23.90
2018-06-11T00:18:18.784Z,22.93
2018-06-11T00:20:48.914Z,22.30
2018-06-11T00:23:19.578Z,23.10
2018-06-11T00:25:49.660Z,23.17
2018-06-11T00:28:19.787Z,22.43
2018-06-11T00:30:50.534Z,24.67
2018-06-11T00:33:21.676Z,25.93
2018-06-11T00:35:52.116Z,23.77
2018-06-11T00:38:22.244Z,24.07
2018-06-11T00:40:52.489Z,22.60
2018-06-11T00:43:22.782Z,25.27
2018-06-11T00:45:52.990Z,23.37
2018-06-11T00:48:23.054Z,21.93
2018-06-11T00:50:53.618Z,20.73
2018-06-11T00:53:23.738Z,20.73
2018-06-11T00:56:08.201Z,18.80
2018-06-11T00:58:39.206Z,18.40
2018-06-11T01:01:09.348Z,17.13
2018-06-11T01:03:39.605Z,16.63
2018-06-11T01:06:09.723Z,16.43
2018-06-11T01:08:40.756Z,15.40
2018-06-11T01:11:11.573Z,14.97
2018-06-11T01:13:42.587Z,15.30
2018-06-11T01:16:13.094Z,15.47
2018-06-11T01:18:43.311Z,15.57
2018-06-11T01:21:13.874Z,16.37
2018-06-11T01:23:44.088Z,14.30
2018-06-11T01:26:14.148Z,15.60
2018-06-11T01:28:44.472Z,15.57
2018-06-11T01:31:14.801Z,15.37
2018-06-11T01:33:44.980Z,15.50
2018-06-11T01:36:15.680Z,16.77
2018-06-11T01:38:45.921Z,15.73
2018-06-11T01:41:16.263Z,16.60
2018-06-11T01:43:47.041Z,14.67
2018-06-11T01:46:17.270Z,16.63
2018-06-11T01:48:47.401Z,15.97
2018-06-11T01:51:18.041Z,15.87
2018-06-11T01:53:48.177Z,15.70
2018-06-11T01:56:18.785Z,14.77
2018-06-11T01:58:49.344Z,14.93
2018-06-11T02:01:19.433Z,14.20
2018-06-11T02:03:50.212Z,14.50
2018-06-11T02:06:20.590Z,14.03
2018-06-11T02:08:50.910Z,14.13
2018-06-11T02:11:21.351Z,15.37
2018-06-11T02:13:51.424Z,16.63
2018-06-11T02:16:21.507Z,16.20
2018-06-11T02:18:51.672Z,15.53
2018-06-11T02:21:21.888Z,15.47
2018-06-11T02:23:52.344Z,17.13
2018-06-11T02:26:22.639Z,16.20
2018-06-11T02:28:52.890Z,15.90
2018-06-11T02:31:23.917Z,15.13
2018-06-11T02:33:54.080Z,15.87
2018-06-11T02:36:24.384Z,16.07
2018-06-11T02:38:54.907Z,16.50
2018-06-11T02:41:24.994Z,16.07
2018-06-11T02:43:55.377Z,17.27
2018-06-11T02:46:25.569Z,17.30
2018-06-11T02:48:55.651Z,15.80
2018-06-11T02:51:26.170Z,16.67
2018-06-11T02:53:57.800Z,16.57
2018-06-11T02:56:27.948Z,18.27
2018-06-11T02:58:58.309Z,19.00
2018-06-11T03:01:28.568Z,19.10
2018-06-11T03:03:59.222Z,18.07
2018-06-11T03:06:29.622Z,16.53
2018-06-11T03:09:00.288Z,17.83
2018-06-11T03:11:30.361Z,18.97
2018-06-11T03:14:00.625Z,17.67
2018-06-11T03:16:31.121Z,18.00
2018-06-11T03:19:01.878Z,18.67
2018-06-11T03:21:33.487Z,18.43
2018-06-11T03:24:03.841Z,18.73
2018-06-11T03:26:34.329Z,18.43
2018-06-11T03:29:05.360Z,17.63
2018-06-11T03:31:35.882Z,16.33
2018-06-11T03:34:06.983Z,17.27
2018-06-11T03:36:37.002Z,17.17
2018-06-11T03:39:10.132Z,15.83
2018-06-11T03:41:40.324Z,16.73
2018-06-11T03:44:10.346Z,15.83
2018-06-11T03:46:40.601Z,15.60
2018-06-11T03:49:10.897Z,15.97
2018-06-11T03:51:41.569Z,15.37
2018-06-11T03:54:12.158Z,14.20
2018-06-11T03:56:42.257Z,15.77
2018-06-11T03:59:12.339Z,15.43
2018-06-11T04:01:42.339Z,11.73
2018-06-11T04:04:12.710Z,13.43
2018-06-11T04:06:42.828Z,12.63
2018-06-11T04:09:13.578Z,12.58
2018-06-11T04:11:43.941Z,13.07
2018-06-11T04:14:14.088Z,12.50
2018-06-11T04:16:44.156Z,12.80
2018-06-11T04:19:14.391Z,11.83
2018-06-11T04:21:44.409Z,11.73
2018-06-11T04:24:14.520Z,12.40
2018-06-11T04:26:44.600Z,13.33
2018-06-11T04:29:15.293Z,13.55
2018-06-11T04:31:45.307Z,12.67
2018-06-11T04:34:15.918Z,12.35
2018-06-11T04:36:46.601Z,11.73
2018-06-11T04:39:17.452Z,11.60
2018-06-11T04:41:48.247Z,10.95
2018-06-11T04:44:19.419Z,11.05
2018-06-11T04:46:49.984Z,10.05
2018-06-11T04:49:20.660Z,9.35
2018-06-11T04:51:51.310Z,9.55
2018-06-11T04:54:21.922Z,8.75
2018-06-11T04:56:52.713Z,9.93
2018-06-11T04:59:23.794Z,9.93
2018-06-11T05:01:54.356Z,8.30
2018-06-11T05:04:24.978Z,9.35
2018-06-11T05:06:55.743Z,8.63
2018-06-11T05:09:26.406Z,8.18
2018-06-11T05:11:56.950Z,7.65
2018-06-11T05:14:27.609Z,8.08
2018-06-11T05:16:58.449Z,7.12
2018-06-11T05:19:28.921Z,7.45
2018-06-11T05:21:59.557Z,6.75
2018-06-11T05:24:30.441Z,7.05
2018-06-11T05:27:01.073Z,7.95
2018-06-11T05:29:31.685Z,7.80
2018-06-11T05:32:02.555Z,8.20
2018-06-11T05:34:33.321Z,7.55
2018-06-11T05:37:04.014Z,7.70
2018-06-11T05:39:34.723Z,7.08
2018-06-11T05:42:05.997Z,6.78
2018-06-11T05:44:37.103Z,7.10
2018-06-11T05:47:07.628Z,7.58
2018-06-11T05:49:38.643Z,7.80
2018-06-11T05:52:09.203Z,7.80
2018-06-11T05:54:39.996Z,7.92
2018-06-11T05:57:10.592Z,6.03
2018-06-11T05:59:41.353Z,7.25
2018-06-11T06:02:11.914Z,6.90
2018-06-11T06:04:42.447Z,7.20
2018-06-11T06:07:13.013Z,7.60
2018-06-11T06:09:43.709Z,6.80
2018-06-11T06:12:14.510Z,6.83
2018-06-11T06:14:45.163Z,6.78
2018-06-11T06:17:15.867Z,6.50
2018-06-11T06:19:46.920Z,7.00
2018-06-11T06:22:17.874Z,6.70
2018-06-11T06:24:48.571Z,6.25
2018-06-11T06:27:18.845Z,6.73
2018-06-11T06:29:49.352Z,6.57
2018-06-11T06:32:20.423Z,7.05
2018-06-11T06:34:51.149Z,7.28
2018-06-11T06:37:21.863Z,6.58
2018-06-11T06:39:52.105Z,6.97
2018-06-11T06:42:22.482Z,6.33
2018-06-11T06:44:53.014Z,6.25
2018-06-11T06:47:23.373Z,6.50
2018-06-11T06:49:53.932Z,6.17
2018-06-11T06:52:24.611Z,6.30
2018-06-11T06:54:55.204Z,6.03
2018-06-11T06:57:25.803Z,5.40
2018-06-11T06:59:56.324Z,5.67
2018-06-11T07:02:27.322Z,5.97
2018-06-11T07:04:57.871Z,5.83
2018-06-11T07:07:28.473Z,6.00
2018-06-11T07:09:59.253Z,5.90
2018-06-11T07:12:29.939Z,6.37
2018-06-11T07:15:00.706Z,7.08
2018-06-11T07:17:31.447Z,6.95
2018-06-11T07:20:02.108Z,6.90
2018-06-11T07:22:32.603Z,6.65
2018-06-11T07:25:03.207Z,6.17
2018-06-11T07:27:34.027Z,6.40
2018-06-11T07:30:05.322Z,6.70
2018-06-11T07:32:36.119Z,7.65
2018-06-11T07:35:06.896Z,7.80
2018-06-11T07:37:37.576Z,8.23
2018-06-11T07:40:08.253Z,8.20
2018-06-11T07:42:38.820Z,8.23
2018-06-11T07:45:09.363Z,9.00
2018-06-11T07:47:39.865Z,7.62
2018-06-11T07:50:10.839Z,8.48
2018-06-11T07:52:41.811Z,8.05
2018-06-11T07:55:12.350Z,9.08
2018-06-11T07:57:42.887Z,9.00
2018-06-11T08:00:15.045Z,9.20
2018-06-11T08:02:45.898Z,8.88
2018-06-11T08:05:16.599Z,9.33
2018-06-11T08:07:47.828Z,8.70
2018-06-11T08:10:18.432Z,9.08
2018-06-11T08:12:48.998Z,9.20
2018-06-11T08:15:19.501Z,9.10
2018-06-11T08:17:50.199Z,9.55
2018-06-11T08:20:21.624Z,9.50
2018-06-11T08:22:52.431Z,8.60
2018-06-11T08:25:24.937Z,8.75
2018-06-11T08:27:56.199Z,9.10
2018-06-11T08:30:29.473Z,8.78
2018-06-11T08:33:00.843Z,8.10
2018-06-11T08:35:31.751Z,9.13
2018-06-11T08:38:02.519Z,8.38
2018-06-11T08:40:33.169Z,8.25
2018-06-11T08:43:03.979Z,7.70
2018-06-11T08:45:34.556Z,7.22
2018-06-11T08:48:07.438Z,8.30
2018-06-11T08:53:15.510Z,7.60
2018-06-11T08:55:46.184Z,6.47
2018-06-11T08:58:16.326Z,6.77
2018-06-11T09:00:46.591Z,6.63
2018-06-11T09:03:16.979Z,6.80
2018-06-11T09:05:47.501Z,5.77
2018-06-11T09:08:17.847Z,6.00
2018-06-11T09:10:48.030Z,5.77
2018-06-11T09:13:18.772Z,6.00
2018-06-11T09:15:49.354Z,6.22
2018-06-11T09:18:20.134Z,8.43
2018-06-11T09:20:51.281Z,8.58
2018-06-11T09:23:21.856Z,8.18
2018-06-11T09:25:52.702Z,8.88
2018-06-11T09:28:23.599Z,8.78
2018-06-11T09:30:54.218Z,9.20
2018-06-11T09:33:25.224Z,8.55
2018-06-11T09:35:55.824Z,8.55
2018-06-11T09:38:26.343Z,7.95
2018-06-11T09:40:56.933Z,7.57
2018-06-11T09:43:27.283Z,7.10
2018-06-11T09:45:57.579Z,7.30
2018-06-11T09:48:27.873Z,6.80
2018-06-11T09:50:58.335Z,7.23
2018-06-11T09:53:28.780Z,6.73
2018-06-11T09:55:59.479Z,6.93
2018-06-11T09:58:29.755Z,6.37
2018-06-11T10:01:00.006Z,7.50
2018-06-11T10:03:30.525Z,6.40
2018-06-11T10:06:00.899Z,6.60
2018-06-11T10:08:31.445Z,6.43
2018-06-11T10:11:01.642Z,6.90
2018-06-11T10:13:32.419Z,6.93
2018-06-11T10:16:03.744Z,6.77
2018-06-11T10:18:34.247Z,7.40
2018-06-11T10:21:04.513Z,8.00
2018-06-11T10:23:35.119Z,7.77
2018-06-11T10:26:05.708Z,8.17
2018-06-11T10:28:36.571Z,9.28
2018-06-11T10:31:07.268Z,9.70
2018-06-11T10:33:38.181Z,10.10
2018-06-11T10:36:08.812Z,9.40
2018-06-11T10:38:39.688Z,11.50
2018-06-11T10:41:10.381Z,10.98
2018-06-11T10:43:41.740Z,9.18
2018-06-11T10:46:12.672Z,9.23
2018-06-11T10:48:43.257Z,5.90
2018-06-11T10:51:14.271Z,5.33
2018-06-11T10:53:45.817Z,5.15
2018-06-11T10:56:16.877Z,2.75
2018-06-11T10:58:48.359Z,3.77
2018-06-11T11:01:19.275Z,2.95
2018-06-11T11:03:50.189Z,3.33
2018-06-11T11:06:20.950Z,2.85
2018-06-11T11:08:51.750Z,2.33
2018-06-11T11:11:22.604Z,3.17
2018-06-11T11:13:53.564Z,3.55
2018-06-11T11:16:24.337Z,3.67
2018-06-11T11:18:54.469Z,3.97
2018-06-11T11:21:24.629Z,5.20
2018-06-11T11:23:55.692Z,4.10
2018-06-11T11:26:25.960Z,4.17
2018-06-11T11:28:56.226Z,4.53
2018-06-11T11:31:26.604Z,4.93
2018-06-11T11:33:56.775Z,3.10
2018-06-11T11:36:26.994Z,3.67
2018-06-11T11:38:57.204Z,3.00
2018-06-11T11:41:27.392Z,3.30
2018-06-11T11:43:58.479Z,3.47
2018-06-11T11:46:29.414Z,3.37
2018-06-11T11:48:59.540Z,3.10
2018-06-11T11:51:30.582Z,2.75
2018-06-11T11:54:00.827Z,2.83
2018-06-11T11:56:32.224Z,2.90
2018-06-11T11:59:03.236Z,3.20
2018-06-11T12:01:34.601Z,2.80
2018-06-11T12:04:11.917Z,2.62
2018-06-11T12:06:43.460Z,2.75
2018-06-11T12:09:14.619Z,3.15
2018-06-11T12:11:45.842Z,2.58
2018-06-11T12:14:17.688Z,2.98
2018-06-11T12:16:50.907Z,3.00
2018-06-11T12:19:21.879Z,3.20
2018-06-11T12:21:53.638Z,3.05
2018-06-11T12:24:25.491Z,2.90
2018-06-11T12:26:56.592Z,3.30
2018-06-11T12:29:27.803Z,3.55
2018-06-11T12:31:58.915Z,3.55
2018-06-11T12:34:29.935Z,3.98
2018-06-11T12:37:01.257Z,3.87
2018-06-11T12:39:32.169Z,3.60
2018-06-11T12:42:03.177Z,3.60
2018-06-11T12:44:34.541Z,3.90
2018-06-11T12:47:05.979Z,3.50
2018-06-11T12:49:36.716Z,2.90
2018-06-11T12:52:07.582Z,3.12
2018-06-11T12:54:38.720Z,3.20
2018-06-11T12:57:09.635Z,2.87
2018-06-11T12:59:40.922Z,2.92
2018-06-11T13:02:11.610Z,2.62
2018-06-11T13:04:42.435Z,2.55
2018-06-11T13:07:12.975Z,2.50
2018-06-11T13:09:43.598Z,2.92
2018-06-11T13:12:14.873Z,2.42
2018-06-11T13:14:45.718Z,2.70
2018-06-11T13:17:16.684Z,2.80
2018-06-11T13:19:47.672Z,2.52
2018-06-11T13:22:18.436Z,2.67
2018-06-11T13:24:49.030Z,2.37
2018-06-11T13:27:19.593Z,2.80
2018-06-11T13:29:50.153Z,3.10
2018-06-11T13:32:20.762Z,2.60
2018-06-11T13:34:51.291Z,2.72
2018-06-11T13:37:21.922Z,3.10
2018-06-11T13:39:52.534Z,3.52
2018-06-11T13:42:24.685Z,3.50
2018-06-11T13:44:55.579Z,3.17
2018-06-11T13:47:27.015Z,2.80
2018-06-11T13:49:57.897Z,3.22
2018-06-11T13:52:28.695Z,2.65
2018-06-11T13:54:59.247Z,3.25
2018-06-11T13:57:30.050Z,3.00
2018-06-11T14:00:00.510Z,2.65
2018-06-11T14:02:33.716Z,3.25
2018-06-11T14:05:04.995Z,3.33
2018-06-11T14:07:37.225Z,3.20
2018-06-11T14:10:14.676Z,3.90
2018-06-11T14:12:45.659Z,3.15
2018-06-11T14:15:16.609Z,3.15
2018-06-11T14:17:47.408Z,3.00
2018-06-11T14:20:18.386Z,2.92
2018-06-11T14:22:49.080Z,3.55
2018-06-11T14:25:19.839Z,4.05
2018-06-11T14:27:50.731Z,3.42
2018-06-11T14:30:21.796Z,3.17
2018-06-11T14:32:53.699Z,3.10
2018-06-11T14:35:25.884Z,3.70
2018-06-11T14:37:56.804Z,3.20
2018-06-11T14:40:28.127Z,3.17
2018-06-11T14:42:58.802Z,2.98
2018-06-11T14:45:34.977Z,3.15
2018-06-11T14:48:06.326Z,3.02
2018-06-11T14:50:38.528Z,2.98
2018-06-11T14:53:09.042Z,3.17
2018-06-11T14:55:39.800Z,3.33
2018-06-11T14:58:10.386Z,3.00
2018-06-11T15:00:41.875Z,3.40
2018-06-11T15:03:12.545Z,3.40
2018-06-11T15:05:43.517Z,3.37
2018-06-11T15:08:14.772Z,3.20
2018-06-11T15:10:46.002Z,3.40
2018-06-11T15:13:16.569Z,3.80
2018-06-11T17:57:11.815Z,0.70
2018-06-11T17:59:42.376Z,0.80
2018-06-11T18:02:12.657Z,0.80
2018-06-11T18:04:42.958Z,1.13
2018-06-11T18:07:13.643Z,1.20
2018-06-11T18:09:43.978Z,1.23
2018-06-11T18:12:14.390Z,1.50
2018-06-11T18:14:45.859Z,1.50
2018-06-11T18:17:16.062Z,1.57
2018-06-11T18:19:46.682Z,1.83
2018-06-11T18:22:16.990Z,2.07
2018-06-11T18:24:47.617Z,2.10
2018-06-11T18:27:17.901Z,2.80
2018-06-11T18:29:48.466Z,3.43
2018-06-11T18:32:18.723Z,3.50
2018-06-11T18:34:49.638Z,3.77
2018-06-11T18:37:19.939Z,4.40
2018-06-11T18:39:50.214Z,4.33
2018-06-11T18:42:20.587Z,4.67
2018-06-11T18:44:51.038Z,4.90
2018-06-11T18:47:21.550Z,4.37
2018-06-11T18:49:52.221Z,4.30
2018-06-11T18:52:22.784Z,5.80
2018-06-11T18:54:53.772Z,6.30
2018-06-11T18:57:24.946Z,6.97
2018-06-11T18:59:55.782Z,5.30
2018-06-11T19:02:27.197Z,5.33
2018-06-11T19:04:57.880Z,4.93
2018-06-11T19:07:28.548Z,5.73
2018-06-11T19:09:58.990Z,6.60
2018-06-11T19:12:30.087Z,7.07
2018-06-11T19:15:01.031Z,7.27
2018-06-11T19:17:31.588Z,8.50
2018-06-11T19:20:02.683Z,8.40
2018-06-11T19:22:33.196Z,9.00
2018-06-11T19:25:03.905Z,10.17
2018-06-11T19:27:35.051Z,12.17
2018-06-11T19:30:06.001Z,11.87
2018-06-11T19:32:36.641Z,10.53
2018-06-11T19:35:07.499Z,11.60
2018-06-11T19:37:38.131Z,12.37
2018-06-11T19:40:08.743Z,12.10
2018-06-11T19:42:39.624Z,10.37
2018-06-11T19:45:09.968Z,12.03
2018-06-11T19:47:40.380Z,10.47
2018-06-11T19:50:11.221Z,12.33
2018-06-11T19:52:42.236Z,11.20
2018-06-11T19:55:12.645Z,11.10
2018-06-11T19:57:43.568Z,9.87
2018-06-11T20:00:14.039Z,10.93
2018-06-11T20:02:44.777Z,11.27
2018-06-11T20:05:15.589Z,12.17
2018-06-11T20:07:46.400Z,13.83
2018-06-11T20:10:16.667Z,15.53
2018-06-11T20:12:47.399Z,15.90
2018-06-11T20:15:18.164Z,16.83
2018-06-11T20:17:48.975Z,18.07
2018-06-11T20:20:20.183Z,16.53
2018-06-11T20:22:50.561Z,16.17
2018-06-11T20:25:21.071Z,16.27
2018-06-11T20:27:51.874Z,17.93
2018-06-11T20:30:22.448Z,17.17
2018-06-11T20:32:52.754Z,18.47
2018-06-11T20:35:23.481Z,17.03
2018-06-11T20:37:53.870Z,19.93
2018-06-11T20:40:24.017Z,21.83
2018-06-11T20:42:54.935Z,21.97
2018-06-11T20:45:25.179Z,21.77
2018-06-11T20:47:55.415Z,16.67
2018-06-11T20:50:25.888Z,21.43
2018-06-11T20:52:56.056Z,17.73
2018-06-11T20:55:26.572Z,13.13
2018-06-11T20:57:56.763Z,10.83
2018-06-11T21:00:27.627Z,14.93
2018-06-11T21:02:57.775Z,20.73
2018-06-11T21:05:28.479Z,15.03
2018-06-11T21:07:58.557Z,12.43
2018-06-11T21:10:28.820Z,11.97
2018-06-11T21:12:59.504Z,13.20
2018-06-11T21:15:29.970Z,9.60
2018-06-11T21:18:00.416Z,10.10
2018-06-11T21:20:30.551Z,10.37
2018-06-11T21:23:01.161Z,10.73
2018-06-11T21:25:31.828Z,15.33
2018-06-11T21:28:02.425Z,32.57
2018-06-11T21:30:32.544Z,12.37
2018-06-11T21:33:02.917Z,57.53
2018-06-11T21:35:33.371Z,33.47
2018-06-11T21:38:03.542Z,15.67
2018-06-11T21:40:33.915Z,40.70
2018-06-11T21:43:04.432Z,25.33
2018-06-11T21:45:34.912Z,15.30
2018-06-11T21:48:05.192Z,12.83
2018-06-11T21:50:35.705Z,12.30
2018-06-11T21:53:05.890Z,13.17
2018-06-11T21:55:36.274Z,15.60
2018-06-11T21:58:06.793Z,11.03
2018-06-11T22:00:37.265Z,12.17
2018-06-11T22:03:07.609Z,11.43
2018-06-11T22:05:38.163Z,9.53
2018-06-11T22:08:08.953Z,9.03
2018-06-11T22:10:39.725Z,8.07
2018-06-11T22:13:09.896Z,7.63
2018-06-11T22:15:40.397Z,7.27
2018-06-11T22:18:10.818Z,7.67
2018-06-11T22:20:41.366Z,7.10
2018-06-11T22:23:11.672Z,7.50
2018-06-11T22:25:41.799Z,6.90
2018-06-11T22:28:11.871Z,7.13
2018-06-11T22:30:42.137Z,6.97
2018-06-11T22:33:12.731Z,7.70
2018-06-11T22:35:42.974Z,7.27
2018-06-11T22:38:12.964Z,7.50
2018-06-11T22:40:43.094Z,6.57
2018-06-11T22:43:13.164Z,6.33
2018-06-11T22:45:43.593Z,6.70
2018-06-11T22:48:13.987Z,6.50
2018-06-11T22:50:44.254Z,7.67
2018-06-11T22:53:14.350Z,5.30
2018-06-11T22:55:44.942Z,7.70
2018-06-11T22:58:15.443Z,7.47
2018-06-11T23:00:45.987Z,8.60
2018-06-11T23:03:17.142Z,9.77
2018-06-11T23:05:47.367Z,11.90
2018-06-11T23:08:17.715Z,12.33
2018-06-11T23:10:48.292Z,12.83
2018-06-11T23:13:18.746Z,12.00
2018-06-11T23:15:48.997Z,16.40
2018-06-11T23:18:19.776Z,14.17
2018-06-11T23:20:50.052Z,8.37
2018-06-11T23:23:20.377Z,17.60
2018-06-11T23:25:50.738Z,9.93
2018-06-11T23:28:21.343Z,15.67
2018-06-11T23:30:51.439Z,13.33
2018-06-11T23:33:21.603Z,10.53
2018-06-11T23:35:51.925Z,14.37
2018-06-11T23:38:21.953Z,16.33
2018-06-11T23:40:52.028Z,14.07
2018-06-11T23:43:22.789Z,10.40
2018-06-11T23:45:53.364Z,16.30
2018-06-11T23:48:23.495Z,17.17
2018-06-11T23:50:53.577Z,14.20
2018-06-11T23:53:23.944Z,14.37
2018-06-11T23:55:54.301Z,15.93
2018-06-11T23:58:24.449Z,11.77
